Port Moresby Jacksons International Airport
AYPY : now visible

Airfield :











YOU CAN JOIN US ON...

 
LOGIN :

Register | Disclaimer

   EN    FR    IT 

 









Legend :    VFR   Marginal VFR   IFR   Intensive IFR   Very Intensive IFR
Visi :
Ceiling :
>= 8 km
>= 3000ft
5 to 8 km
1000 to 3000 ft
1500m to 5 km
500 to 1000 ft
800 to 1500m
200 to 500 ft
< 800m
< 200 ft
Symbols :   Thunderstorms  Fog  Heavy snow  Heavy precipitations  Wind > 20 kt






- Airport Elevation : 146 ft
- IATA code : POM


AYPY - Port Moresby Jacksons International

CURRENT METAR :
  • 021700Z 35010KT 9999 SCT050 25/23 Q1007

EXPIRED METARs :
  • 021600Z 34010KT 9999 SHRA FEW030 BKN050 25/24 Q1007
  • 021500Z 34010KT 9999 SHRA BKN050 25/24 Q1007
  • 020300Z 16005G15KT 9999 FUHZ SCT025 SCT050 32/25 Q1007 RMK: CB NW TO E

TAF TAF AYPY
Valid from the 02 at 12:00 until the 03 at 12:00 UTC


021000Z 0212/0312 16006KT 9999 SCT040 SCT140
FM021800 34005KT 9999 SCT040 SCT140
FM022100 34006KT 9999 SCT018 SCT140
FM030500 24008KT 9999 -SHRA BKN020
PROB30 INTER 0306/0309 5000 TSRA BKN010 FEW018CB
AYPM FIR / Oceania



MET'MAP, your aeronautical weather chart ! - Copyright ORBIFLY December 2007 - Disclaimer

ORBIFLY MET'MAP TEAM :

Programming & Development : Alexandra Zaïnal
Original concept : Baudouin d'Aumeries
Technical & hardware support : Manuel Goepfert
Assistance : Marc-Olivier Méhu




SOURCES & CREDITS :

   NOAA       Earth
Advisory